sensor_id;sensor_type;location;lat;lon;timestamp;P1;durP1;ratioP1;P2;durP2;ratioP2
32746;SDS011;19118;50.860;13.662;2022-10-16T00:02:55;6.63;;;2.80;;
32746;SDS011;19118;50.860;13.662;2022-10-16T00:07:55;4.28;;;3.45;;
32746;SDS011;19118;50.860;13.662;2022-10-16T00:12:56;4.35;;;3.10;;
32746;SDS011;19118;50.860;13.662;2022-10-16T00:17:56;6.38;;;3.42;;
32746;SDS011;19118;50.860;13.662;2022-10-16T00:22:57;10.18;;;3.63;;
32746;SDS011;19118;50.860;13.662;2022-10-16T00:27:57;4.65;;;3.65;;
32746;SDS011;19118;50.860;13.662;2022-10-16T00:32:58;5.07;;;3.90;;
32746;SDS011;19118;50.860;13.662;2022-10-16T00:37:59;4.00;;;3.60;;
32746;SDS011;19118;50.860;13.662;2022-10-16T00:42:59;5.95;;;3.60;;
32746;SDS011;19118;50.860;13.662;2022-10-16T00:47:59;6.53;;;3.83;;
32746;SDS011;19118;50.860;13.662;2022-10-16T00:53:00;6.00;;;4.13;;
32746;SDS011;19118;50.860;13.662;2022-10-16T00:58:03;4.70;;;3.22;;
32746;SDS011;19118;50.860;13.662;2022-10-16T01:03:22;8.35;;;4.05;;
32746;SDS011;19118;50.860;13.662;2022-10-16T01:08:45;6.65;;;3.47;;
32746;SDS011;19118;50.860;13.662;2022-10-16T01:13:59;4.65;;;3.35;;
32746;SDS011;19118;50.860;13.662;2022-10-16T01:19:11;4.65;;;3.50;;
32746;SDS011;19118;50.860;13.662;2022-10-16T01:35:02;6.22;;;4.45;;
32746;SDS011;19118;50.860;13.662;2022-10-16T01:40:11;6.82;;;3.42;;
32746;SDS011;19118;50.860;13.662;2022-10-16T01:45:15;5.38;;;3.35;;
32746;SDS011;19118;50.860;13.662;2022-10-16T01:50:19;10.35;;;4.03;;
32746;SDS011;19118;50.860;13.662;2022-10-16T01:55:26;7.65;;;3.63;;
32746;SDS011;19118;50.860;13.662;2022-10-16T02:00:31;6.13;;;4.00;;
32746;SDS011;19118;50.860;13.662;2022-10-16T02:05:41;11.73;;;4.05;;
32746;SDS011;19118;50.860;13.662;2022-10-16T02:10:49;7.13;;;3.92;;
32746;SDS011;19118;50.860;13.662;2022-10-16T02:15:49;6.38;;;3.53;;
32746;SDS011;19118;50.860;13.662;2022-10-16T02:20:55;4.70;;;3.45;;
32746;SDS011;19118;50.860;13.662;2022-10-16T02:25:59;4.28;;;3.13;;
32746;SDS011;19118;50.860;13.662;2022-10-16T02:31:04;6.97;;;3.28;;
32746;SDS011;19118;50.860;13.662;2022-10-16T02:36:11;3.53;;;2.83;;
32746;SDS011;19118;50.860;13.662;2022-10-16T02:41:12;2.83;;;2.30;;
32746;SDS011;19118;50.860;13.662;2022-10-16T02:46:12;3.20;;;2.40;;
32746;SDS011;19118;50.860;13.662;2022-10-16T02:51:13;3.55;;;2.53;;
32746;SDS011;19118;50.860;13.662;2022-10-16T02:56:13;3.60;;;2.88;;
32746;SDS011;19118;50.860;13.662;2022-10-16T03:01:13;3.42;;;2.05;;
32746;SDS011;19118;50.860;13.662;2022-10-16T03:06:16;4.28;;;1.90;;
32746;SDS011;19118;50.860;13.662;2022-10-16T03:11:17;5.90;;;2.10;;
32746;SDS011;19118;50.860;13.662;2022-10-16T03:16:17;2.25;;;1.98;;
32746;SDS011;19118;50.860;13.662;2022-10-16T03:21:17;4.13;;;2.15;;
32746;SDS011;19118;50.860;13.662;2022-10-16T03:26:18;2.63;;;2.17;;
32746;SDS011;19118;50.860;13.662;2022-10-16T03:31:18;3.53;;;2.00;;
32746;SDS011;19118;50.860;13.662;2022-10-16T03:36:18;4.93;;;2.08;;
32746;SDS011;19118;50.860;13.662;2022-10-16T03:41:19;2.00;;;1.73;;
32746;SDS011;19118;50.860;13.662;2022-10-16T03:46:19;1.63;;;1.45;;
32746;SDS011;19118;50.860;13.662;2022-10-16T03:51:20;1.75;;;1.42;;
32746;SDS011;19118;50.860;13.662;2022-10-16T03:56:20;1.60;;;1.50;;
32746;SDS011;19118;50.860;13.662;2022-10-16T04:01:21;1.80;;;1.35;;
32746;SDS011;19118;50.860;13.662;2022-10-16T04:06:21;1.97;;;1.10;;
32746;SDS011;19118;50.860;13.662;2022-10-16T04:11:21;0.88;;;0.80;;
32746;SDS011;19118;50.860;13.662;2022-10-16T04:16:22;2.60;;;1.30;;
32746;SDS011;19118;50.860;13.662;2022-10-16T04:21:22;2.97;;;1.80;;
32746;SDS011;19118;50.860;13.662;2022-10-16T04:26:23;1.88;;;1.42;;
32746;SDS011;19118;50.860;13.662;2022-10-16T04:31:23;6.05;;;1.65;;
32746;SDS011;19118;50.860;13.662;2022-10-16T04:36:24;5.13;;;1.70;;
32746;SDS011;19118;50.860;13.662;2022-10-16T04:41:24;2.17;;;1.83;;
32746;SDS011;19118;50.860;13.662;2022-10-16T04:46:24;2.08;;;1.88;;
32746;SDS011;19118;50.860;13.662;2022-10-16T04:51:25;5.07;;;1.87;;
32746;SDS011;19118;50.860;13.662;2022-10-16T04:56:26;3.45;;;2.00;;
32746;SDS011;19118;50.860;13.662;2022-10-16T05:01:26;3.80;;;2.38;;
32746;SDS011;19118;50.860;13.662;2022-10-16T05:06:27;5.30;;;3.00;;
32746;SDS011;19118;50.860;13.662;2022-10-16T05:11:27;10.55;;;2.70;;
32746;SDS011;19118;50.860;13.662;2022-10-16T05:16:28;3.55;;;2.90;;
32746;SDS011;19118;50.860;13.662;2022-10-16T05:21:28;5.93;;;3.17;;
32746;SDS011;19118;50.860;13.662;2022-10-16T05:26:29;5.40;;;3.22;;
32746;SDS011;19118;50.860;13.662;2022-10-16T05:31:29;3.33;;;2.95;;
32746;SDS011;19118;50.860;13.662;2022-10-16T05:36:29;3.17;;;2.88;;
32746;SDS011;19118;50.860;13.662;2022-10-16T05:41:30;9.02;;;3.47;;
32746;SDS011;19118;50.860;13.662;2022-10-16T05:46:31;5.03;;;4.30;;
32746;SDS011;19118;50.860;13.662;2022-10-16T05:51:32;5.20;;;4.70;;
32746;SDS011;19118;50.860;13.662;2022-10-16T05:56:33;9.80;;;5.53;;
32746;SDS011;19118;50.860;13.662;2022-10-16T06:01:33;7.03;;;5.05;;
32746;SDS011;19118;50.860;13.662;2022-10-16T06:06:35;6.20;;;5.18;;
32746;SDS011;19118;50.860;13.662;2022-10-16T06:11:36;14.30;;;8.77;;
32746;SDS011;19118;50.860;13.662;2022-10-16T06:16:37;13.00;;;7.20;;
32746;SDS011;19118;50.860;13.662;2022-10-16T06:21:37;4.43;;;4.03;;
32746;SDS011;19118;50.860;13.662;2022-10-16T06:26:38;3.38;;;2.83;;
32746;SDS011;19118;50.860;13.662;2022-10-16T06:31:38;2.72;;;1.90;;
32746;SDS011;19118;50.860;13.662;2022-10-16T06:36:39;4.53;;;1.30;;
32746;SDS011;19118;50.860;13.662;2022-10-16T06:41:39;1.67;;;0.80;;
32746;SDS011;19118;50.860;13.662;2022-10-16T06:46:49;0.60;;;0.60;;
32746;SDS011;19118;50.860;13.662;2022-10-16T06:51:49;4.67;;;0.90;;
32746;SDS011;19118;50.860;13.662;2022-10-16T06:56:50;2.95;;;0.60;;
32746;SDS011;19118;50.860;13.662;2022-10-16T07:01:51;1.17;;;0.52;;
32746;SDS011;19118;50.860;13.662;2022-10-16T07:06:51;0.85;;;0.52;;
32746;SDS011;19118;50.860;13.662;2022-10-16T07:11:52;0.43;;;0.43;;
32746;SDS011;19118;50.860;13.662;2022-10-16T07:16:53;1.10;;;0.60;;
32746;SDS011;19118;50.860;13.662;2022-10-16T07:21:53;1.88;;;1.52;;
32746;SDS011;19118;50.860;13.662;2022-10-16T07:26:54;6.13;;;2.73;;
32746;SDS011;19118;50.860;13.662;2022-10-16T07:31:54;4.47;;;3.03;;
32746;SDS011;19118;50.860;13.662;2022-10-16T07:36:54;4.90;;;3.72;;
32746;SDS011;19118;50.860;13.662;2022-10-16T07:41:55;4.10;;;3.22;;
32746;SDS011;19118;50.860;13.662;2022-10-16T07:46:56;7.20;;;3.65;;
32746;SDS011;19118;50.860;13.662;2022-10-16T07:51:56;4.05;;;3.35;;
32746;SDS011;19118;50.860;13.662;2022-10-16T07:56:57;5.40;;;3.38;;
32746;SDS011;19118;50.860;13.662;2022-10-16T08:01:57;3.83;;;3.43;;
32746;SDS011;19118;50.860;13.662;2022-10-16T08:06:57;12.27;;;3.80;;
32746;SDS011;19118;50.860;13.662;2022-10-16T08:11:58;3.33;;;2.53;;
32746;SDS011;19118;50.860;13.662;2022-10-16T08:16:58;4.20;;;1.83;;
32746;SDS011;19118;50.860;13.662;2022-10-16T08:21:58;1.97;;;1.40;;
32746;SDS011;19118;50.860;13.662;2022-10-16T08:26:59;9.30;;;1.47;;
32746;SDS011;19118;50.860;13.662;2022-10-16T08:31:59;6.28;;;1.27;;
32746;SDS011;19118;50.860;13.662;2022-10-16T08:37:00;4.40;;;1.40;;
32746;SDS011;19118;50.860;13.662;2022-10-16T08:42:10;5.28;;;1.02;;
32746;SDS011;19118;50.860;13.662;2022-10-16T08:47:21;1.13;;;1.02;;
32746;SDS011;19118;50.860;13.662;2022-10-16T08:52:29;1.40;;;0.77;;
32746;SDS011;19118;50.860;13.662;2022-10-16T08:57:33;1.25;;;1.10;;
32746;SDS011;19118;50.860;13.662;2022-10-16T09:02:37;1.50;;;0.90;;
32746;SDS011;19118;50.860;13.662;2022-10-16T09:07:54;0.80;;;0.80;;
32746;SDS011;19118;50.860;13.662;2022-10-16T09:13:17;1.05;;;0.77;;
32746;SDS011;19118;50.860;13.662;2022-10-16T09:23:36;1.40;;;0.80;;
32746;SDS011;19118;50.860;13.662;2022-10-16T09:28:37;0.70;;;0.57;;
32746;SDS011;19118;50.860;13.662;2022-10-16T09:33:38;1.08;;;0.52;;
32746;SDS011;19118;50.860;13.662;2022-10-16T09:38:40;0.90;;;0.75;;
32746;SDS011;19118;50.860;13.662;2022-10-16T09:43:41;17.25;;;1.30;;
32746;SDS011;19118;50.860;13.662;2022-10-16T09:48:59;4.68;;;1.10;;
32746;SDS011;19118;50.860;13.662;2022-10-16T09:54:11;2.22;;;1.10;;
32746;SDS011;19118;50.860;13.662;2022-10-16T09:59:16;4.07;;;1.20;;
32746;SDS011;19118;50.860;13.662;2022-10-16T10:04:21;4.38;;;1.10;;
32746;SDS011;19118;50.860;13.662;2022-10-16T10:09:35;2.88;;;0.82;;
32746;SDS011;19118;50.860;13.662;2022-10-16T10:14:39;1.92;;;1.55;;
32746;SDS011;19118;50.860;13.662;2022-10-16T10:19:47;9.15;;;1.90;;
32746;SDS011;19118;50.860;13.662;2022-10-16T10:45:46;0.73;;;0.40;;
32746;SDS011;19118;50.860;13.662;2022-10-16T10:50:58;0.43;;;0.32;;
32746;SDS011;19118;50.860;13.662;2022-10-16T10:56:21;3.03;;;0.50;;
32746;SDS011;19118;50.860;13.662;2022-10-16T11:07:04;2.38;;;0.40;;
32746;SDS011;19118;50.860;13.662;2022-10-16T11:17:12;4.55;;;0.47;;
32746;SDS011;19118;50.860;13.662;2022-10-16T11:38:11;2.05;;;0.50;;
32746;SDS011;19118;50.860;13.662;2022-10-16T11:43:24;0.68;;;0.50;;
32746;SDS011;19118;50.860;13.662;2022-10-16T11:48:33;0.52;;;0.50;;
32746;SDS011;19118;50.860;13.662;2022-10-16T11:53:42;1.13;;;0.50;;
32746;SDS011;19118;50.860;13.662;2022-10-16T11:58:58;1.73;;;0.30;;
32746;SDS011;19118;50.860;13.662;2022-10-16T12:09:35;1.20;;;0.40;;
32746;SDS011;19118;50.860;13.662;2022-10-16T12:14:38;1.63;;;0.60;;
32746;SDS011;19118;50.860;13.662;2022-10-16T12:19:39;1.05;;;0.55;;
32746;SDS011;19118;50.860;13.662;2022-10-16T12:24:42;7.95;;;0.63;;
32746;SDS011;19118;50.860;13.662;2022-10-16T12:29:43;2.15;;;0.68;;
32746;SDS011;19118;50.860;13.662;2022-10-16T12:34:44;1.73;;;0.40;;
32746;SDS011;19118;50.860;13.662;2022-10-16T12:39:45;0.40;;;0.40;;
32746;SDS011;19118;50.860;13.662;2022-10-16T12:44:47;0.50;;;0.50;;
32746;SDS011;19118;50.860;13.662;2022-10-16T12:49:49;0.38;;;0.30;;
32746;SDS011;19118;50.860;13.662;2022-10-16T12:54:51;2.03;;;0.32;;
32746;SDS011;19118;50.860;13.662;2022-10-16T13:26:38;1.08;;;0.65;;
32746;SDS011;19118;50.860;13.662;2022-10-16T13:31:44;1.23;;;0.63;;
32746;SDS011;19118;50.860;13.662;2022-10-16T13:36:46;1.17;;;0.75;;
32746;SDS011;19118;50.860;13.662;2022-10-16T13:47:19;1.95;;;0.90;;
32746;SDS011;19118;50.860;13.662;2022-10-16T13:52:21;3.30;;;0.80;;
32746;SDS011;19118;50.860;13.662;2022-10-16T13:57:23;1.42;;;0.80;;
32746;SDS011;19118;50.860;13.662;2022-10-16T14:07:35;1.60;;;0.88;;
32746;SDS011;19118;50.860;13.662;2022-10-16T14:12:37;4.88;;;1.10;;
32746;SDS011;19118;50.860;13.662;2022-10-16T14:17:37;10.23;;;0.98;;
32746;SDS011;19118;50.860;13.662;2022-10-16T14:22:45;4.37;;;1.07;;
32746;SDS011;19118;50.860;13.662;2022-10-16T14:28:00;1.17;;;0.70;;
32746;SDS011;19118;50.860;13.662;2022-10-16T14:33:06;2.92;;;0.77;;
32746;SDS011;19118;50.860;13.662;2022-10-16T14:38:20;1.83;;;0.82;;
32746;SDS011;19118;50.860;13.662;2022-10-16T14:43:21;4.60;;;1.10;;
32746;SDS011;19118;50.860;13.662;2022-10-16T14:48:28;2.23;;;1.20;;
32746;SDS011;19118;50.860;13.662;2022-10-16T14:53:29;2.42;;;0.93;;
32746;SDS011;19118;50.860;13.662;2022-10-16T14:58:29;6.78;;;1.00;;
32746;SDS011;19118;50.860;13.662;2022-10-16T15:03:30;2.25;;;1.08;;
32746;SDS011;19118;50.860;13.662;2022-10-16T15:08:30;3.73;;;0.80;;
32746;SDS011;19118;50.860;13.662;2022-10-16T15:13:30;1.00;;;0.67;;
32746;SDS011;19118;50.860;13.662;2022-10-16T15:18:31;2.20;;;1.10;;
32746;SDS011;19118;50.860;13.662;2022-10-16T15:23:31;1.65;;;0.73;;
32746;SDS011;19118;50.860;13.662;2022-10-16T15:28:31;5.15;;;0.80;;
32746;SDS011;19118;50.860;13.662;2022-10-16T15:33:32;7.73;;;0.90;;
32746;SDS011;19118;50.860;13.662;2022-10-16T15:38:34;9.25;;;3.58;;
32746;SDS011;19118;50.860;13.662;2022-10-16T15:43:35;3.22;;;1.73;;
32746;SDS011;19118;50.860;13.662;2022-10-16T15:48:35;8.87;;;3.80;;
32746;SDS011;19118;50.860;13.662;2022-10-16T15:53:36;12.48;;;4.05;;
32746;SDS011;19118;50.860;13.662;2022-10-16T15:58:36;18.60;;;1.58;;
32746;SDS011;19118;50.860;13.662;2022-10-16T16:03:37;5.93;;;1.13;;
32746;SDS011;19118;50.860;13.662;2022-10-16T16:08:40;3.05;;;1.15;;
32746;SDS011;19118;50.860;13.662;2022-10-16T16:13:41;6.22;;;0.95;;
32746;SDS011;19118;50.860;13.662;2022-10-16T16:18:41;2.78;;;0.90;;
32746;SDS011;19118;50.860;13.662;2022-10-16T16:23:42;9.57;;;0.77;;
32746;SDS011;19118;50.860;13.662;2022-10-16T16:28:43;13.75;;;1.67;;
32746;SDS011;19118;50.860;13.662;2022-10-16T16:33:43;2.28;;;0.98;;
32746;SDS011;19118;50.860;13.662;2022-10-16T16:38:44;6.88;;;1.20;;
32746;SDS011;19118;50.860;13.662;2022-10-16T16:43:45;8.02;;;1.20;;
32746;SDS011;19118;50.860;13.662;2022-10-16T16:48:47;2.03;;;1.02;;
32746;SDS011;19118;50.860;13.662;2022-10-16T16:53:50;3.78;;;1.10;;
32746;SDS011;19118;50.860;13.662;2022-10-16T16:58:53;7.30;;;1.40;;
32746;SDS011;19118;50.860;13.662;2022-10-16T17:03:55;2.08;;;1.25;;
32746;SDS011;19118;50.860;13.662;2022-10-16T17:08:57;19.92;;;2.67;;
32746;SDS011;19118;50.860;13.662;2022-10-16T17:13:58;3.88;;;1.65;;
32746;SDS011;19118;50.860;13.662;2022-10-16T17:19:00;19.75;;;2.35;;
32746;SDS011;19118;50.860;13.662;2022-10-16T17:24:03;10.32;;;2.10;;
32746;SDS011;19118;50.860;13.662;2022-10-16T17:29:03;2.63;;;1.38;;
32746;SDS011;19118;50.860;13.662;2022-10-16T17:34:05;2.47;;;1.50;;
32746;SDS011;19118;50.860;13.662;2022-10-16T17:39:07;10.18;;;2.22;;
32746;SDS011;19118;50.860;13.662;2022-10-16T17:44:09;11.38;;;2.10;;
32746;SDS011;19118;50.860;13.662;2022-10-16T17:49:09;14.75;;;6.07;;
32746;SDS011;19118;50.860;13.662;2022-10-16T17:54:10;10.95;;;2.03;;
32746;SDS011;19118;50.860;13.662;2022-10-16T17:59:13;7.22;;;1.95;;
32746;SDS011;19118;50.860;13.662;2022-10-16T18:04:15;7.47;;;1.90;;
32746;SDS011;19118;50.860;13.662;2022-10-16T18:09:16;2.80;;;2.03;;
32746;SDS011;19118;50.860;13.662;2022-10-16T18:14:18;3.50;;;1.80;;
32746;SDS011;19118;50.860;13.662;2022-10-16T18:19:19;2.13;;;1.65;;
32746;SDS011;19118;50.860;13.662;2022-10-16T18:24:21;8.13;;;1.38;;
32746;SDS011;19118;50.860;13.662;2022-10-16T18:29:25;5.93;;;1.60;;
32746;SDS011;19118;50.860;13.662;2022-10-16T18:34:26;6.28;;;1.75;;
32746;SDS011;19118;50.860;13.662;2022-10-16T18:39:27;1.85;;;1.42;;
32746;SDS011;19118;50.860;13.662;2022-10-16T18:44:27;4.30;;;1.90;;
32746;SDS011;19118;50.860;13.662;2022-10-16T18:49:27;4.28;;;2.30;;
32746;SDS011;19118;50.860;13.662;2022-10-16T18:54:28;5.10;;;2.00;;
32746;SDS011;19118;50.860;13.662;2022-10-16T18:59:29;9.15;;;2.20;;
32746;SDS011;19118;50.860;13.662;2022-10-16T19:04:29;27.02;;;2.78;;
32746;SDS011;19118;50.860;13.662;2022-10-16T19:09:30;23.00;;;5.07;;
32746;SDS011;19118;50.860;13.662;2022-10-16T19:14:31;4.22;;;2.67;;
32746;SDS011;19118;50.860;13.662;2022-10-16T19:19:31;7.20;;;2.17;;
32746;SDS011;19118;50.860;13.662;2022-10-16T19:24:32;8.68;;;1.85;;
32746;SDS011;19118;50.860;13.662;2022-10-16T19:29:34;6.65;;;2.03;;
32746;SDS011;19118;50.860;13.662;2022-10-16T19:34:34;2.78;;;1.83;;
32746;SDS011;19118;50.860;13.662;2022-10-16T19:39:34;5.95;;;1.65;;
32746;SDS011;19118;50.860;13.662;2022-10-16T19:44:35;5.75;;;1.63;;
32746;SDS011;19118;50.860;13.662;2022-10-16T19:49:35;9.93;;;1.58;;
32746;SDS011;19118;50.860;13.662;2022-10-16T19:54:36;2.22;;;1.63;;
32746;SDS011;19118;50.860;13.662;2022-10-16T19:59:38;6.97;;;1.55;;
32746;SDS011;19118;50.860;13.662;2022-10-16T20:04:38;5.35;;;1.65;;
32746;SDS011;19118;50.860;13.662;2022-10-16T20:09:38;1.73;;;1.25;;
32746;SDS011;19118;50.860;13.662;2022-10-16T20:14:39;6.32;;;1.92;;
32746;SDS011;19118;50.860;13.662;2022-10-16T20:19:39;2.53;;;1.47;;
32746;SDS011;19118;50.860;13.662;2022-10-16T20:24:39;3.35;;;1.88;;
32746;SDS011;19118;50.860;13.662;2022-10-16T20:29:40;8.23;;;1.85;;
32746;SDS011;19118;50.860;13.662;2022-10-16T20:34:40;3.08;;;1.50;;
32746;SDS011;19118;50.860;13.662;2022-10-16T20:39:45;7.13;;;1.63;;
32746;SDS011;19118;50.860;13.662;2022-10-16T20:44:46;3.53;;;1.40;;
32746;SDS011;19118;50.860;13.662;2022-10-16T20:49:47;7.28;;;1.52;;
32746;SDS011;19118;50.860;13.662;2022-10-16T20:54:47;4.57;;;1.58;;
32746;SDS011;19118;50.860;13.662;2022-10-16T20:59:47;3.67;;;1.50;;
32746;SDS011;19118;50.860;13.662;2022-10-16T21:04:49;5.90;;;1.75;;
32746;SDS011;19118;50.860;13.662;2022-10-16T21:09:50;1.97;;;1.37;;
32746;SDS011;19118;50.860;13.662;2022-10-16T21:14:50;5.03;;;1.43;;
32746;SDS011;19118;50.860;13.662;2022-10-16T21:19:51;11.15;;;1.63;;
32746;SDS011;19118;50.860;13.662;2022-10-16T21:24:51;3.40;;;1.30;;
32746;SDS011;19118;50.860;13.662;2022-10-16T21:29:52;6.78;;;1.30;;
32746;SDS011;19118;50.860;13.662;2022-10-16T21:34:53;3.60;;;1.48;;
32746;SDS011;19118;50.860;13.662;2022-10-16T21:39:54;7.05;;;1.55;;
32746;SDS011;19118;50.860;13.662;2022-10-16T21:44:55;2.88;;;1.42;;
32746;SDS011;19118;50.860;13.662;2022-10-16T21:49:55;4.32;;;1.35;;
32746;SDS011;19118;50.860;13.662;2022-10-16T21:54:56;5.93;;;1.33;;
32746;SDS011;19118;50.860;13.662;2022-10-16T21:59:56;3.47;;;1.30;;
32746;SDS011;19118;50.860;13.662;2022-10-16T22:04:56;8.75;;;1.40;;
32746;SDS011;19118;50.860;13.662;2022-10-16T22:09:57;9.98;;;2.42;;
32746;SDS011;19118;50.860;13.662;2022-10-16T22:14:57;4.40;;;2.03;;
32746;SDS011;19118;50.860;13.662;2022-10-16T22:19:57;3.28;;;1.55;;
32746;SDS011;19118;50.860;13.662;2022-10-16T22:24:58;6.88;;;1.98;;
32746;SDS011;19118;50.860;13.662;2022-10-16T22:29:58;6.53;;;1.50;;
32746;SDS011;19118;50.860;13.662;2022-10-16T22:34:59;3.85;;;2.08;;
32746;SDS011;19118;50.860;13.662;2022-10-16T22:39:59;3.08;;;1.92;;
32746;SDS011;19118;50.860;13.662;2022-10-16T22:45:00;5.10;;;1.95;;
32746;SDS011;19118;50.860;13.662;2022-10-16T22:50:00;3.95;;;2.20;;
32746;SDS011;19118;50.860;13.662;2022-10-16T22:55:01;2.80;;;2.00;;
32746;SDS011;19118;50.860;13.662;2022-10-16T23:00:02;3.22;;;1.70;;
32746;SDS011;19118;50.860;13.662;2022-10-16T23:05:08;11.65;;;1.95;;
32746;SDS011;19118;50.860;13.662;2022-10-16T23:10:09;7.90;;;2.50;;
32746;SDS011;19118;50.860;13.662;2022-10-16T23:15:09;14.63;;;2.55;;
32746;SDS011;19118;50.860;13.662;2022-10-16T23:20:10;4.88;;;2.63;;
32746;SDS011;19118;50.860;13.662;2022-10-16T23:25:10;6.38;;;2.42;;
32746;SDS011;19118;50.860;13.662;2022-10-16T23:30:11;7.65;;;2.97;;
32746;SDS011;19118;50.860;13.662;2022-10-16T23:35:11;6.03;;;2.88;;
32746;SDS011;19118;50.860;13.662;2022-10-16T23:40:11;9.32;;;2.65;;
32746;SDS011;19118;50.860;13.662;2022-10-16T23:45:12;4.70;;;2.33;;
32746;SDS011;19118;50.860;13.662;2022-10-16T23:50:12;4.03;;;2.20;;
32746;SDS011;19118;50.860;13.662;2022-10-16T23:55:13;7.90;;;2.70;;
